sensor_id;sensor_type;location;lat;lon;timestamp;temperature;humidity
71047;SHT31;58703;48.978;8.982;2023-04-06T00:01:46;-2.29;91.50
71047;SHT31;58703;48.978;8.982;2023-04-06T00:04:12;-2.41;92.23
71047;SHT31;58703;48.978;8.982;2023-04-06T00:06:37;-2.42;92.41
71047;SHT31;58703;48.978;8.982;2023-04-06T00:09:03;-2.31;91.79
71047;SHT31;58703;48.978;8.982;2023-04-06T00:11:30;-2.41;91.57
71047;SHT31;58703;48.978;8.982;2023-04-06T00:13:55;-2.41;91.70
71047;SHT31;58703;48.978;8.982;2023-04-06T00:16:22;-2.42;91.58
71047;SHT31;58703;48.978;8.982;2023-04-06T00:18:47;-2.36;91.92
71047;SHT31;58703;48.978;8.982;2023-04-06T00:21:14;-2.42;92.10
71047;SHT31;58703;48.978;8.982;2023-04-06T00:23:41;-2.42;92.23
71047;SHT31;58703;48.978;8.982;2023-04-06T00:26:07;-2.32;91.44
71047;SHT31;58703;48.978;8.982;2023-04-06T00:28:33;-2.48;91.74
71047;SHT31;58703;48.978;8.982;2023-04-06T00:31:00;-2.52;91.88
71047;SHT31;58703;48.978;8.982;2023-04-06T00:33:26;-2.53;91.88
71047;SHT31;58703;48.978;8.982;2023-04-06T00:35:52;-2.52;91.84
71047;SHT31;58703;48.978;8.982;2023-04-06T00:38:19;-2.56;92.02
71047;SHT31;58703;48.978;8.982;2023-04-06T00:40:44;-2.73;93.34
71047;SHT31;58703;48.978;8.982;2023-04-06T00:43:13;-2.77;94.11
71047;SHT31;58703;48.978;8.982;2023-04-06T00:45:40;-2.76;94.00
71047;SHT31;58703;48.978;8.982;2023-04-06T00:48:08;-2.67;93.85
71047;SHT31;58703;48.978;8.982;2023-04-06T00:50:34;-2.60;93.13
71047;SHT31;58703;48.978;8.982;2023-04-06T00:52:59;-2.59;92.63
71047;SHT31;58703;48.978;8.982;2023-04-06T00:55:28;-2.69;92.62
71047;SHT31;58703;48.978;8.982;2023-04-06T00:57:57;-2.73;93.05
71047;SHT31;58703;48.978;8.982;2023-04-06T01:00:24;-2.81;93.19
71047;SHT31;58703;48.978;8.982;2023-04-06T01:02:50;-2.69;93.06
71047;SHT31;58703;48.978;8.982;2023-04-06T01:05:16;-2.60;92.41
71047;SHT31;58703;48.978;8.982;2023-04-06T01:07:42;-2.90;93.41
71047;SHT31;58703;48.978;8.982;2023-04-06T01:10:08;-3.03;94.58
71047;SHT31;58703;48.978;8.982;2023-04-06T01:12:33;-2.98;94.40
71047;SHT31;58703;48.978;8.982;2023-04-06T01:15:00;-2.84;93.99
71047;SHT31;58703;48.978;8.982;2023-04-06T01:17:26;-2.80;93.69
71047;SHT31;58703;48.978;8.982;2023-04-06T01:19:53;-2.74;93.50
71047;SHT31;58703;48.978;8.982;2023-04-06T01:22:19;-2.77;93.03
71047;SHT31;58703;48.978;8.982;2023-04-06T01:24:46;-2.73;93.55
71047;SHT31;58703;48.978;8.982;2023-04-06T01:27:12;-2.74;93.44
71047;SHT31;58703;48.978;8.982;2023-04-06T01:29:38;-2.80;93.68
71047;SHT31;58703;48.978;8.982;2023-04-06T01:32:07;-2.79;93.66
71047;SHT31;58703;48.978;8.982;2023-04-06T01:34:33;-2.77;93.45
71047;SHT31;58703;48.978;8.982;2023-04-06T01:36:59;-2.93;94.22
71047;SHT31;58703;48.978;8.982;2023-04-06T01:39:24;-2.97;94.41
71047;SHT31;58703;48.978;8.982;2023-04-06T01:41:50;-2.73;93.78
71047;SHT31;58703;48.978;8.982;2023-04-06T01:44:17;-2.81;93.97
71047;SHT31;58703;48.978;8.982;2023-04-06T01:46:45;-2.74;93.48
71047;SHT31;58703;48.978;8.982;2023-04-06T01:49:12;-2.74;93.54
71047;SHT31;58703;48.978;8.982;2023-04-06T01:51:39;-2.66;93.87
71047;SHT31;58703;48.978;8.982;2023-04-06T01:54:04;-2.56;93.32
71047;SHT31;58703;48.978;8.982;2023-04-06T01:56:32;-2.31;92.12
71047;SHT31;58703;48.978;8.982;2023-04-06T01:58:59;-2.12;91.12
71047;SHT31;58703;48.978;8.982;2023-04-06T02:01:24;-2.02;90.35
71047;SHT31;58703;48.978;8.982;2023-04-06T02:03:51;-1.91;90.24
71047;SHT31;58703;48.978;8.982;2023-04-06T02:06:16;-1.75;89.17
71047;SHT31;58703;48.978;8.982;2023-04-06T02:08:43;-1.74;89.00
71047;SHT31;58703;48.978;8.982;2023-04-06T02:11:10;-1.80;89.57
71047;SHT31;58703;48.978;8.982;2023-04-06T02:13:36;-1.92;90.13
71047;SHT31;58703;48.978;8.982;2023-04-06T02:16:01;-1.78;90.12
71047;SHT31;58703;48.978;8.982;2023-04-06T02:18:30;-1.74;89.73
71047;SHT31;58703;48.978;8.982;2023-04-06T02:20:56;-1.84;89.51
71047;SHT31;58703;48.978;8.982;2023-04-06T02:23:23;-1.80;89.47
71047;SHT31;58703;48.978;8.982;2023-04-06T02:25:51;-1.77;89.41
71047;SHT31;58703;48.978;8.982;2023-04-06T02:28:16;-1.80;89.59
71047;SHT31;58703;48.978;8.982;2023-04-06T02:30:42;-1.78;89.49
71047;SHT31;58703;48.978;8.982;2023-04-06T02:33:07;-1.85;89.72
71047;SHT31;58703;48.978;8.982;2023-04-06T02:35:34;-1.78;89.73
71047;SHT31;58703;48.978;8.982;2023-04-06T02:38:01;-1.89;90.18
71047;SHT31;58703;48.978;8.982;2023-04-06T02:40:27;-2.15;91.06
71047;SHT31;58703;48.978;8.982;2023-04-06T02:42:52;-2.31;91.79
71047;SHT31;58703;48.978;8.982;2023-04-06T02:45:18;-2.28;91.90
71047;SHT31;58703;48.978;8.982;2023-04-06T02:47:44;-2.31;92.10
71047;SHT31;58703;48.978;8.982;2023-04-06T02:50:11;-2.41;92.52
71047;SHT31;58703;48.978;8.982;2023-04-06T02:52:38;-2.38;92.58
71047;SHT31;58703;48.978;8.982;2023-04-06T02:55:05;-2.26;92.37
71047;SHT31;58703;48.978;8.982;2023-04-06T02:57:33;-2.25;92.03
71047;SHT31;58703;48.978;8.982;2023-04-06T02:59:59;-2.05;91.44
71047;SHT31;58703;48.978;8.982;2023-04-06T03:02:26;-2.28;91.27
71047;SHT31;58703;48.978;8.982;2023-04-06T03:04:53;-2.25;92.00
71047;SHT31;58703;48.978;8.982;2023-04-06T03:07:20;-2.18;91.82
71047;SHT31;58703;48.978;8.982;2023-04-06T03:09:47;-2.31;91.88
71047;SHT31;58703;48.978;8.982;2023-04-06T03:12:14;-2.31;92.14
71047;SHT31;58703;48.978;8.982;2023-04-06T03:14:40;-2.35;92.06
71047;SHT31;58703;48.978;8.982;2023-04-06T03:17:06;-2.33;92.18
71047;SHT31;58703;48.978;8.982;2023-04-06T03:19:32;-2.50;92.05
71047;SHT31;58703;48.978;8.982;2023-04-06T03:21:58;-2.59;92.51
71047;SHT31;58703;48.978;8.982;2023-04-06T03:24:24;-2.57;92.68
71047;SHT31;58703;48.978;8.982;2023-04-06T03:26:50;-2.72;92.75
71047;SHT31;58703;48.978;8.982;2023-04-06T03:29:15;-2.88;94.07
71047;SHT31;58703;48.978;8.982;2023-04-06T03:31:42;-2.91;94.67
71047;SHT31;58703;48.978;8.982;2023-04-06T03:34:08;-3.01;94.55
71047;SHT31;58703;48.978;8.982;2023-04-06T03:36:34;-2.83;94.48
71047;SHT31;58703;48.978;8.982;2023-04-06T03:39:01;-2.81;93.70
71047;SHT31;58703;48.978;8.982;2023-04-06T03:41:27;-2.79;93.47
71047;SHT31;58703;48.978;8.982;2023-04-06T03:43:52;-2.84;93.66
71047;SHT31;58703;48.978;8.982;2023-04-06T03:46:18;-2.87;93.90
71047;SHT31;58703;48.978;8.982;2023-04-06T03:48:47;-2.97;94.89
71047;SHT31;58703;48.978;8.982;2023-04-06T03:51:13;-3.03;95.19
71047;SHT31;58703;48.978;8.982;2023-04-06T03:53:39;-3.04;94.85
71047;SHT31;58703;48.978;8.982;2023-04-06T03:56:07;-3.14;94.89
71047;SHT31;58703;48.978;8.982;2023-04-06T03:58:33;-3.11;94.97
71047;SHT31;58703;48.978;8.982;2023-04-06T04:01:01;-3.11;95.12
71047;SHT31;58703;48.978;8.982;2023-04-06T04:03:26;-3.24;95.71
71047;SHT31;58703;48.978;8.982;2023-04-06T04:05:54;-3.25;95.70
71047;SHT31;58703;48.978;8.982;2023-04-06T04:08:24;-3.22;95.40
71047;SHT31;58703;48.978;8.982;2023-04-06T04:10:51;-3.15;95.21
71047;SHT31;58703;48.978;8.982;2023-04-06T04:13:17;-3.08;94.85
71047;SHT31;58703;48.978;8.982;2023-04-06T04:15:42;-3.17;94.88
71047;SHT31;58703;48.978;8.982;2023-04-06T04:18:08;-3.25;94.92
71047;SHT31;58703;48.978;8.982;2023-04-06T04:20:33;-3.41;95.70
71047;SHT31;58703;48.978;8.982;2023-04-06T04:22:59;-3.36;95.94
71047;SHT31;58703;48.978;8.982;2023-04-06T04:25:26;-3.35;95.98
71047;SHT31;58703;48.978;8.982;2023-04-06T04:27:52;-3.45;96.08
71047;SHT31;58703;48.978;8.982;2023-04-06T04:30:18;-3.41;96.40
71047;SHT31;58703;48.978;8.982;2023-04-06T04:32:43;-3.52;96.58
71047;SHT31;58703;48.978;8.982;2023-04-06T04:35:10;-3.54;96.78
71047;SHT31;58703;48.978;8.982;2023-04-06T04:37:36;-3.51;96.61
71047;SHT31;58703;48.978;8.982;2023-04-06T04:40:02;-3.51;96.06
71047;SHT31;58703;48.978;8.982;2023-04-06T04:42:29;-3.60;95.97
71047;SHT31;58703;48.978;8.982;2023-04-06T04:44:55;-3.73;96.95
71047;SHT31;58703;48.978;8.982;2023-04-06T04:47:20;-3.79;97.70
71047;SHT31;58703;48.978;8.982;2023-04-06T04:49:46;-3.80;98.18
71047;SHT31;58703;48.978;8.982;2023-04-06T04:52:11;-3.87;98.41
71047;SHT31;58703;48.978;8.982;2023-04-06T04:54:37;-3.90;98.28
71047;SHT31;58703;48.978;8.982;2023-04-06T04:57:04;-3.87;98.15
71047;SHT31;58703;48.978;8.982;2023-04-06T04:59:29;-3.90;97.83
71047;SHT31;58703;48.978;8.982;2023-04-06T05:01:55;-3.79;97.80
71047;SHT31;58703;48.978;8.982;2023-04-06T05:04:21;-3.52;97.08
71047;SHT31;58703;48.978;8.982;2023-04-06T05:06:47;-3.28;96.77
71047;SHT31;58703;48.978;8.982;2023-04-06T05:09:13;-3.19;95.97
71047;SHT31;58703;48.978;8.982;2023-04-06T05:11:39;-3.28;96.17
71047;SHT31;58703;48.978;8.982;2023-04-06T05:14:07;-3.17;96.63
71047;SHT31;58703;48.978;8.982;2023-04-06T05:16:34;-3.08;96.47
71047;SHT31;58703;48.978;8.982;2023-04-06T05:18:59;-2.97;96.34
71047;SHT31;58703;48.978;8.982;2023-04-06T05:21:25;-2.67;95.86
71047;SHT31;58703;48.978;8.982;2023-04-06T05:23:53;-2.62;95.29
71047;SHT31;58703;48.978;8.982;2023-04-06T05:26:19;-2.45;95.32
71047;SHT31;58703;48.978;8.982;2023-04-06T05:28:45;-2.31;94.86
71047;SHT31;58703;48.978;8.982;2023-04-06T05:31:12;-2.11;94.09
71047;SHT31;58703;48.978;8.982;2023-04-06T05:33:37;-1.67;92.45
71047;SHT31;58703;48.978;8.982;2023-04-06T05:36:03;-1.71;92.81
71047;SHT31;58703;48.978;8.982;2023-04-06T05:38:30;-1.33;91.36
71047;SHT31;58703;48.978;8.982;2023-04-06T05:40:56;-1.20;90.31
71047;SHT31;58703;48.978;8.982;2023-04-06T05:43:22;-1.02;89.42
71047;SHT31;58703;48.978;8.982;2023-04-06T05:45:48;-0.82;88.78
71047;SHT31;58703;48.978;8.982;2023-04-06T05:48:14;-0.79;88.56
71047;SHT31;58703;48.978;8.982;2023-04-06T05:50:41;-0.81;88.35
71047;SHT31;58703;48.978;8.982;2023-04-06T05:53:07;-0.65;88.89
71047;SHT31;58703;48.978;8.982;2023-04-06T05:55:33;-0.27;87.38
71047;SHT31;58703;48.978;8.982;2023-04-06T05:58:00;-0.30;86.08
71047;SHT31;58703;48.978;8.982;2023-04-06T06:00:27;-0.75;85.16
71047;SHT31;58703;48.978;8.982;2023-04-06T06:02:53;-0.27;85.73
71047;SHT31;58703;48.978;8.982;2023-04-06T06:05:19;0.44;82.83
71047;SHT31;58703;48.978;8.982;2023-04-06T06:07:46;0.50;83.43
71047;SHT31;58703;48.978;8.982;2023-04-06T06:10:11;0.83;83.77
71047;SHT31;58703;48.978;8.982;2023-04-06T06:12:38;0.95;83.34
71047;SHT31;58703;48.978;8.982;2023-04-06T06:15:06;1.04;81.98
71047;SHT31;58703;48.978;8.982;2023-04-06T06:17:33;1.26;81.26
71047;SHT31;58703;48.978;8.982;2023-04-06T06:19:59;1.02;79.87
71047;SHT31;58703;48.978;8.982;2023-04-06T06:22:26;1.89;77.98
71047;SHT31;58703;48.978;8.982;2023-04-06T06:24:51;1.98;78.40
71047;SHT31;58703;48.978;8.982;2023-04-06T06:27:17;2.14;77.13
71047;SHT31;58703;48.978;8.982;2023-04-06T06:29:43;2.26;75.59
71047;SHT31;58703;48.978;8.982;2023-04-06T06:32:10;2.76;74.27
71047;SHT31;58703;48.978;8.982;2023-04-06T06:34:37;2.79;73.57
71047;SHT31;58703;48.978;8.982;2023-04-06T06:37:04;1.78;75.87
71047;SHT31;58703;48.978;8.982;2023-04-06T06:39:31;1.84;75.95
71047;SHT31;58703;48.978;8.982;2023-04-06T06:41:58;2.75;75.98
71047;SHT31;58703;48.978;8.982;2023-04-06T06:44:27;2.93;74.51
71047;SHT31;58703;48.978;8.982;2023-04-06T06:46:54;2.86;74.62
71047;SHT31;58703;48.978;8.982;2023-04-06T06:49:21;3.12;73.88
71047;SHT31;58703;48.978;8.982;2023-04-06T06:51:46;2.70;73.63
71047;SHT31;58703;48.978;8.982;2023-04-06T06:54:12;2.96;74.50
71047;SHT31;58703;48.978;8.982;2023-04-06T06:56:38;3.27;72.97
71047;SHT31;58703;48.978;8.982;2023-04-06T06:59:05;2.97;73.75
71047;SHT31;58703;48.978;8.982;2023-04-06T07:01:32;3.11;73.28
71047;SHT31;58703;48.978;8.982;2023-04-06T07:03:59;3.62;72.87
71047;SHT31;58703;48.978;8.982;2023-04-06T07:06:26;3.85;70.65
71047;SHT31;58703;48.978;8.982;2023-04-06T07:08:53;3.95;71.28
71047;SHT31;58703;48.978;8.982;2023-04-06T07:11:20;3.92;70.80
71047;SHT31;58703;48.978;8.982;2023-04-06T07:13:46;3.78;70.58
71047;SHT31;58703;48.978;8.982;2023-04-06T07:16:11;3.93;71.92
71047;SHT31;58703;48.978;8.982;2023-04-06T07:18:37;4.23;69.55
71047;SHT31;58703;48.978;8.982;2023-04-06T07:21:04;4.18;69.98
71047;SHT31;58703;48.978;8.982;2023-04-06T07:23:31;4.06;73.77
71047;SHT31;58703;48.978;8.982;2023-04-06T07:25:56;4.17;70.39
71047;SHT31;58703;48.978;8.982;2023-04-06T07:28:22;4.40;70.40
71047;SHT31;58703;48.978;8.982;2023-04-06T07:30:47;4.58;69.18
71047;SHT31;58703;48.978;8.982;2023-04-06T07:33:13;4.56;69.79
71047;SHT31;58703;48.978;8.982;2023-04-06T07:35:39;5.02;69.35
71047;SHT31;58703;48.978;8.982;2023-04-06T07:38:06;5.23;68.41
71047;SHT31;58703;48.978;8.982;2023-04-06T07:40:32;4.75;70.09
71047;SHT31;58703;48.978;8.982;2023-04-06T07:42:58;5.09;68.93
71047;SHT31;58703;48.978;8.982;2023-04-06T07:45:24;4.84;69.54
71047;SHT31;58703;48.978;8.982;2023-04-06T07:47:49;5.42;69.30
71047;SHT31;58703;48.978;8.982;2023-04-06T07:50:15;5.73;70.03
71047;SHT31;58703;48.978;8.982;2023-04-06T07:52:42;5.87;66.45
71047;SHT31;58703;48.978;8.982;2023-04-06T07:55:08;6.07;65.99
71047;SHT31;58703;48.978;8.982;2023-04-06T07:57:33;5.75;66.34
71047;SHT31;58703;48.978;8.982;2023-04-06T07:59:59;6.17;67.05
71047;SHT31;58703;48.978;8.982;2023-04-06T08:02:26;6.59;66.40
71047;SHT31;58703;48.978;8.982;2023-04-06T08:04:51;6.83;67.06
71047;SHT31;58703;48.978;8.982;2023-04-06T08:07:17;6.92;64.77
71047;SHT31;58703;48.978;8.982;2023-04-06T08:09:43;7.40;64.01
71047;SHT31;58703;48.978;8.982;2023-04-06T08:12:10;6.85;64.88
71047;SHT31;58703;48.978;8.982;2023-04-06T08:14:36;7.48;64.36
71047;SHT31;58703;48.978;8.982;2023-04-06T08:17:03;8.16;61.94
71047;SHT31;58703;48.978;8.982;2023-04-06T08:19:28;8.40;60.44
71047;SHT31;58703;48.978;8.982;2023-04-06T08:21:54;7.82;61.74
71047;SHT31;58703;48.978;8.982;2023-04-06T08:24:21;7.82;63.65
71047;SHT31;58703;48.978;8.982;2023-04-06T08:26:46;8.33;60.00
71047;SHT31;58703;48.978;8.982;2023-04-06T08:29:12;8.20;63.07
71047;SHT31;58703;48.978;8.982;2023-04-06T08:31:37;9.00;58.82
71047;SHT31;58703;48.978;8.982;2023-04-06T08:34:04;8.88;58.83
71047;SHT31;58703;48.978;8.982;2023-04-06T08:36:30;8.83;55.96
71047;SHT31;58703;48.978;8.982;2023-04-06T08:38:58;8.61;57.26
71047;SHT31;58703;48.978;8.982;2023-04-06T08:41:28;9.18;57.47
71047;SHT31;58703;48.978;8.982;2023-04-06T08:43:59;8.91;55.79
71047;SHT31;58703;48.978;8.982;2023-04-06T08:46:28;8.67;55.53
71047;SHT31;58703;48.978;8.982;2023-04-06T08:48:58;8.81;56.66
71047;SHT31;58703;48.978;8.982;2023-04-06T08:51:27;9.89;55.61
71047;SHT31;58703;48.978;8.982;2023-04-06T08:53:59;10.57;54.29
71047;SHT31;58703;48.978;8.982;2023-04-06T08:56:27;10.78;51.89
71047;SHT31;58703;48.978;8.982;2023-04-06T08:58:55;10.11;53.38
71047;SHT31;58703;48.978;8.982;2023-04-06T09:01:33;10.44;52.42
71047;SHT31;58703;48.978;8.982;2023-04-06T09:04:04;10.50;52.31
71047;SHT31;58703;48.978;8.982;2023-04-06T09:06:35;10.33;52.10
71047;SHT31;58703;48.978;8.982;2023-04-06T09:09:03;10.24;50.85
71047;SHT31;58703;48.978;8.982;2023-04-06T09:11:48;10.91;49.39
71047;SHT31;58703;48.978;8.982;2023-04-06T09:14:15;10.81;49.97
71047;SHT31;58703;48.978;8.982;2023-04-06T09:16:44;10.88;49.81
71047;SHT31;58703;48.978;8.982;2023-04-06T09:19:14;11.39;48.10
71047;SHT31;58703;48.978;8.982;2023-04-06T09:21:41;11.19;49.80
71047;SHT31;58703;48.978;8.982;2023-04-06T09:24:08;12.21;48.40
71047;SHT31;58703;48.978;8.982;2023-04-06T09:26:44;12.93;45.69
71047;SHT31;58703;48.978;8.982;2023-04-06T09:29:22;12.18;45.93
71047;SHT31;58703;48.978;8.982;2023-04-06T09:31:47;12.66;44.86
71047;SHT31;58703;48.978;8.982;2023-04-06T09:34:21;12.34;43.47
71047;SHT31;58703;48.978;8.982;2023-04-06T09:36:47;12.20;44.12
71047;SHT31;58703;48.978;8.982;2023-04-06T09:39:13;12.15;41.82
71047;SHT31;58703;48.978;8.982;2023-04-06T09:41:40;12.39;42.77
71047;SHT31;58703;48.978;8.982;2023-04-06T09:44:12;12.97;41.89
71047;SHT31;58703;48.978;8.982;2023-04-06T09:46:39;13.11;41.76
71047;SHT31;58703;48.978;8.982;2023-04-06T09:49:07;12.17;41.76
71047;SHT31;58703;48.978;8.982;2023-04-06T09:51:38;12.77;41.32
71047;SHT31;58703;48.978;8.982;2023-04-06T09:54:06;13.38;39.02
71047;SHT31;58703;48.978;8.982;2023-04-06T09:56:43;13.21;40.05
71047;SHT31;58703;48.978;8.982;2023-04-06T09:59:16;13.10;41.17
71047;SHT31;58703;48.978;8.982;2023-04-06T10:01:44;13.24;40.38
71047;SHT31;58703;48.978;8.982;2023-04-06T10:04:27;12.13;40.61
71047;SHT31;58703;48.978;8.982;2023-04-06T10:06:57;14.08;40.01
71047;SHT31;58703;48.978;8.982;2023-04-06T10:09:25;15.03;37.35
71047;SHT31;58703;48.978;8.982;2023-04-06T10:11:55;13.33;38.52
71047;SHT31;58703;48.978;8.982;2023-04-06T10:14:22;14.08;37.76
71047;SHT31;58703;48.978;8.982;2023-04-06T10:16:49;14.91;37.33
71047;SHT31;58703;48.978;8.982;2023-04-06T10:19:22;15.42;36.08
71047;SHT31;58703;48.978;8.982;2023-04-06T10:21:51;13.67;39.10
71047;SHT31;58703;48.978;8.982;2023-04-06T10:24:18;14.46;37.48
71047;SHT31;58703;48.978;8.982;2023-04-06T10:26:57;13.85;38.27
71047;SHT31;58703;48.978;8.982;2023-04-06T10:29:23;13.83;37.64
71047;SHT31;58703;48.978;8.982;2023-04-06T10:31:50;15.07;37.67
71047;SHT31;58703;48.978;8.982;2023-04-06T10:34:19;13.71;35.85
71047;SHT31;58703;48.978;8.982;2023-04-06T10:36:45;14.97;35.43
71047;SHT31;58703;48.978;8.982;2023-04-06T10:39:10;14.80;34.93
71047;SHT31;58703;48.978;8.982;2023-04-06T10:41:44;13.88;35.33
71047;SHT31;58703;48.978;8.982;2023-04-06T10:44:20;15.52;35.36
71047;SHT31;58703;48.978;8.982;2023-04-06T10:46:59;15.49;33.76
71047;SHT31;58703;48.978;8.982;2023-04-06T10:49:28;14.90;34.74
71047;SHT31;58703;48.978;8.982;2023-04-06T10:51:56;15.20;34.53
71047;SHT31;58703;48.978;8.982;2023-04-06T10:54:23;16.19;34.59
71047;SHT31;58703;48.978;8.982;2023-04-06T10:56:55;16.44;31.91
71047;SHT31;58703;48.978;8.982;2023-04-06T10:59:22;16.74;32.53
71047;SHT31;58703;48.978;8.982;2023-04-06T11:01:50;15.92;34.10
71047;SHT31;58703;48.978;8.982;2023-04-06T11:04:21;16.37;34.82
71047;SHT31;58703;48.978;8.982;2023-04-06T11:06:48;13.82;35.31
71047;SHT31;58703;48.978;8.982;2023-04-06T11:09:26;13.79;35.39
71047;SHT31;58703;48.978;8.982;2023-04-06T11:11:53;13.75;36.61
71047;SHT31;58703;48.978;8.982;2023-04-06T11:14:21;14.46;36.58
71047;SHT31;58703;48.978;8.982;2023-04-06T11:16:47;15.18;35.60
71047;SHT31;58703;48.978;8.982;2023-04-06T11:19:17;15.28;36.25
71047;SHT31;58703;48.978;8.982;2023-04-06T11:21:48;15.54;35.50
71047;SHT31;58703;48.978;8.982;2023-04-06T11:24:18;16.37;35.30
71047;SHT31;58703;48.978;8.982;2023-04-06T11:26:57;15.08;35.00
71047;SHT31;58703;48.978;8.982;2023-04-06T11:29:29;15.97;34.67
71047;SHT31;58703;48.978;8.982;2023-04-06T11:32:03;13.94;35.78
71047;SHT31;58703;48.978;8.982;2023-04-06T11:34:32;14.26;35.16
71047;SHT31;58703;48.978;8.982;2023-04-06T11:37:01;15.32;35.38
71047;SHT31;58703;48.978;8.982;2023-04-06T11:39:39;15.23;34.19
71047;SHT31;58703;48.978;8.982;2023-04-06T11:42:07;15.49;33.57
71047;SHT31;58703;48.978;8.982;2023-04-06T11:44:38;16.29;34.44
71047;SHT31;58703;48.978;8.982;2023-04-06T11:47:09;14.56;34.59
71047;SHT31;58703;48.978;8.982;2023-04-06T11:49:40;15.35;34.46
71047;SHT31;58703;48.978;8.982;2023-04-06T11:52:27;14.98;33.11
71047;SHT31;58703;48.978;8.982;2023-04-06T11:54:54;14.76;33.73
71047;SHT31;58703;48.978;8.982;2023-04-06T11:57:22;16.00;34.56
71047;SHT31;58703;48.978;8.982;2023-04-06T11:59:51;15.45;32.37
71047;SHT31;58703;48.978;8.982;2023-04-06T12:02:19;15.66;33.12
71047;SHT31;58703;48.978;8.982;2023-04-06T12:04:45;15.46;32.47
71047;SHT31;58703;48.978;8.982;2023-04-06T12:07:11;15.99;33.56
71047;SHT31;58703;48.978;8.982;2023-04-06T12:09:38;16.14;31.57
71047;SHT31;58703;48.978;8.982;2023-04-06T12:12:04;16.54;31.34
71047;SHT31;58703;48.978;8.982;2023-04-06T12:14:31;17.57;31.61
71047;SHT31;58703;48.978;8.982;2023-04-06T12:16:58;16.82;32.07
71047;SHT31;58703;48.978;8.982;2023-04-06T12:19:25;17.59;30.71
71047;SHT31;58703;48.978;8.982;2023-04-06T12:21:53;17.23;30.63
71047;SHT31;58703;48.978;8.982;2023-04-06T12:24:21;17.57;30.40
71047;SHT31;58703;48.978;8.982;2023-04-06T12:26:48;16.88;31.88
71047;SHT31;58703;48.978;8.982;2023-04-06T12:29:15;16.72;32.90
71047;SHT31;58703;48.978;8.982;2023-04-06T12:31:41;17.46;31.62
71047;SHT31;58703;48.978;8.982;2023-04-06T12:34:08;18.89;29.96
71047;SHT31;58703;48.978;8.982;2023-04-06T12:36:34;16.21;32.11
71047;SHT31;58703;48.978;8.982;2023-04-06T12:39:01;17.33;32.43
71047;SHT31;58703;48.978;8.982;2023-04-06T12:41:29;17.40;31.60
71047;SHT31;58703;48.978;8.982;2023-04-06T12:43:55;17.33;31.41
71047;SHT31;58703;48.978;8.982;2023-04-06T12:46:23;17.00;32.57
71047;SHT31;58703;48.978;8.982;2023-04-06T12:48:51;16.44;31.78
71047;SHT31;58703;48.978;8.982;2023-04-06T12:51:18;16.46;31.83
71047;SHT31;58703;48.978;8.982;2023-04-06T12:53:46;16.71;32.89
71047;SHT31;58703;48.978;8.982;2023-04-06T12:56:14;16.84;32.11
71047;SHT31;58703;48.978;8.982;2023-04-06T12:58:41;16.64;32.73
71047;SHT31;58703;48.978;8.982;2023-04-06T13:01:07;15.95;33.24
71047;SHT31;58703;48.978;8.982;2023-04-06T13:03:33;16.91;32.23
71047;SHT31;58703;48.978;8.982;2023-04-06T13:06:15;16.58;31.98
71047;SHT31;58703;48.978;8.982;2023-04-06T13:08:54;17.47;30.48
71047;SHT31;58703;48.978;8.982;2023-04-06T13:11:20;17.35;31.66
71047;SHT31;58703;48.978;8.982;2023-04-06T13:13:50;16.20;32.01
71047;SHT31;58703;48.978;8.982;2023-04-06T13:16:20;17.01;32.16
71047;SHT31;58703;48.978;8.982;2023-04-06T13:18:46;15.68;33.27
71047;SHT31;58703;48.978;8.982;2023-04-06T13:21:14;15.49;32.86
71047;SHT31;58703;48.978;8.982;2023-04-06T13:23:41;16.89;32.23
71047;SHT31;58703;48.978;8.982;2023-04-06T13:26:08;17.32;30.96
71047;SHT31;58703;48.978;8.982;2023-04-06T13:28:35;17.86;30.55
71047;SHT31;58703;48.978;8.982;2023-04-06T13:31:04;18.05;30.69
71047;SHT31;58703;48.978;8.982;2023-04-06T13:33:30;17.00;33.14
71047;SHT31;58703;48.978;8.982;2023-04-06T13:35:57;15.83;33.73
71047;SHT31;58703;48.978;8.982;2023-04-06T13:38:23;15.46;33.72
71047;SHT31;58703;48.978;8.982;2023-04-06T13:40:50;17.31;32.34
71047;SHT31;58703;48.978;8.982;2023-04-06T13:43:18;18.07;30.43
71047;SHT31;58703;48.978;8.982;2023-04-06T13:45:55;17.60;30.39
71047;SHT31;58703;48.978;8.982;2023-04-06T13:48:26;17.82;31.26
71047;SHT31;58703;48.978;8.982;2023-04-06T13:50:52;18.55;28.65
71047;SHT31;58703;48.978;8.982;2023-04-06T13:53:18;17.59;30.60
71047;SHT31;58703;48.978;8.982;2023-04-06T13:55:52;20.10;28.90
71047;SHT31;58703;48.978;8.982;2023-04-06T13:58:19;19.20;28.90
71047;SHT31;58703;48.978;8.982;2023-04-06T14:00:44;19.36;28.65
71047;SHT31;58703;48.978;8.982;2023-04-06T14:03:11;21.38;27.69
71047;SHT31;58703;48.978;8.982;2023-04-06T14:05:36;19.20;28.39
71047;SHT31;58703;48.978;8.982;2023-04-06T14:08:03;19.56;29.41
71047;SHT31;58703;48.978;8.982;2023-04-06T14:10:29;18.01;30.23
71047;SHT31;58703;48.978;8.982;2023-04-06T14:12:55;18.40;30.51
71047;SHT31;58703;48.978;8.982;2023-04-06T14:15:23;17.94;30.18
71047;SHT31;58703;48.978;8.982;2023-04-06T14:17:50;19.02;29.93
71047;SHT31;58703;48.978;8.982;2023-04-06T14:20:16;18.51;29.66
71047;SHT31;58703;48.978;8.982;2023-04-06T14:22:43;20.33;28.38
71047;SHT31;58703;48.978;8.982;2023-04-06T14:25:09;17.22;31.69
71047;SHT31;58703;48.978;8.982;2023-04-06T14:27:38;16.91;31.94
71047;SHT31;58703;48.978;8.982;2023-04-06T14:30:05;17.11;31.71
71047;SHT31;58703;48.978;8.982;2023-04-06T14:32:31;17.39;30.85
71047;SHT31;58703;48.978;8.982;2023-04-06T14:34:57;16.54;32.50
71047;SHT31;58703;48.978;8.982;2023-04-06T14:37:23;16.14;33.00
71047;SHT31;58703;48.978;8.982;2023-04-06T14:39:49;15.82;34.50
71047;SHT31;58703;48.978;8.982;2023-04-06T14:42:14;15.76;37.04
71047;SHT31;58703;48.978;8.982;2023-04-06T14:44:40;15.04;36.20
71047;SHT31;58703;48.978;8.982;2023-04-06T14:47:09;15.38;38.26
71047;SHT31;58703;48.978;8.982;2023-04-06T14:49:35;16.30;36.06
71047;SHT31;58703;48.978;8.982;2023-04-06T14:52:02;16.17;33.33
71047;SHT31;58703;48.978;8.982;2023-04-06T14:54:28;16.17;34.40
71047;SHT31;58703;48.978;8.982;2023-04-06T14:56:55;16.26;34.54
71047;SHT31;58703;48.978;8.982;2023-04-06T14:59:23;15.81;33.29
71047;SHT31;58703;48.978;8.982;2023-04-06T15:01:48;15.03;35.49
71047;SHT31;58703;48.978;8.982;2023-04-06T15:04:15;14.88;35.08
71047;SHT31;58703;48.978;8.982;2023-04-06T15:06:42;14.90;35.31
71047;SHT31;58703;48.978;8.982;2023-04-06T15:09:07;15.04;36.59
71047;SHT31;58703;48.978;8.982;2023-04-06T15:11:33;14.69;37.29
71047;SHT31;58703;48.978;8.982;2023-04-06T15:14:00;14.66;37.21
71047;SHT31;58703;48.978;8.982;2023-04-06T15:16:28;14.36;38.92
71047;SHT31;58703;48.978;8.982;2023-04-06T15:18:59;13.95;38.69
71047;SHT31;58703;48.978;8.982;2023-04-06T15:21:25;13.77;40.63
71047;SHT31;58703;48.978;8.982;2023-04-06T15:23:52;13.98;40.91
71047;SHT31;58703;48.978;8.982;2023-04-06T15:26:17;14.55;38.90
71047;SHT31;58703;48.978;8.982;2023-04-06T15:28:43;15.28;40.17
71047;SHT31;58703;48.978;8.982;2023-04-06T15:31:16;14.85;41.05
71047;SHT31;58703;48.978;8.982;2023-04-06T15:33:41;15.11;39.20